Time;durP1;ratioP1;P1;durP2;ratioP2;P2;SDS_P1;SDS_P2;PMS_P1;PMS_P2;Temp;Humidity;BMP_temperature;BMP_pressure;BME280_temperature;BME280_humidity;BME280_pressure;Samples;Min_cycle;Max_cycle;Signal;HPM_P1;HPM_P2
2021/11/30 00:01:19;;;;;;;0.40;0.20;;;2.10;99.90;;;;;;4995134;28;20775;-73
2021/11/30 00:03:45;;;;;;;0.40;0.20;;;2.10;99.90;;;;;;4988531;28;20752;-73
2021/11/30 00:06:12;;;;;;;0.40;0.20;;;2.10;99.90;;;;;;4994586;28;20401;-74
2021/11/30 00:08:38;;;;;;;0.40;0.22;;;2.00;99.90;;;;;;5006388;28;20805;-73
2021/11/30 00:11:07;;;;;;;0.40;0.30;;;2.10;99.90;;;;;;4995377;28;20420;-73
2021/11/30 00:13:35;;;;;;;0.40;0.20;;;2.10;99.90;;;;;;4997792;28;20718;-71
2021/11/30 00:16:01;;;;;;;0.40;0.20;;;2.10;99.90;;;;;;5003070;28;20424;-72
2021/11/30 00:18:35;;;;;;;0.40;0.20;;;2.10;99.90;;;;;;4995756;28;20433;-70
2021/11/30 00:21:09;;;;;;;0.40;0.20;;;2.20;99.90;;;;;;5001124;28;20447;-71
2021/11/30 00:23:36;;;;;;;0.40;0.20;;;2.10;99.90;;;;;;4999927;28;20397;-72
2021/11/30 00:26:03;;;;;;;1.10;0.50;;;2.10;99.90;;;;;;4992307;28;20751;-72
2021/11/30 00:28:29;;;;;;;0.40;0.20;;;2.20;99.90;;;;;;5001731;28;20789;-70
2021/11/30 00:30:55;;;;;;;0.40;0.25;;;2.10;99.90;;;;;;5003900;28;20420;-72
2021/11/30 00:33:21;;;;;;;0.40;0.20;;;2.10;99.90;;;;;;5011229;28;20520;-71
2021/11/30 00:35:47;;;;;;;0.40;0.20;;;2.20;99.90;;;;;;5011213;28;20387;-70
2021/11/30 00:38:14;;;;;;;0.40;0.20;;;2.20;99.90;;;;;;5010791;28;20381;-72
2021/11/30 00:40:44;;;;;;;0.40;0.20;;;2.20;99.90;;;;;;5011526;28;20402;-71
2021/11/30 00:43:18;;;;;;;0.40;0.40;;;2.20;99.90;;;;;;5010599;28;20900;-71
2021/11/30 00:45:57;;;;;;;0.40;0.20;;;2.20;99.90;;;;;;5011201;28;20918;-71
2021/11/30 00:48:30;;;;;;;0.40;0.20;;;2.20;99.90;;;;;;5010844;28;20730;-71
2021/11/30 00:51:03;;;;;;;0.40;0.20;;;2.20;99.90;;;;;;5010814;28;20564;-71
2021/11/30 00:53:31;;;;;;;0.40;0.20;;;2.30;99.90;;;;;;5010153;28;20471;-72
2021/11/30 00:55:57;;;;;;;0.40;0.20;;;2.20;99.90;;;;;;4993905;28;20834;-71
2021/11/30 00:58:23;;;;;;;0.40;0.20;;;2.30;99.90;;;;;;5001520;28;20442;-71
2021/11/30 01:00:49;;;;;;;0.40;0.20;;;2.20;99.90;;;;;;4991589;28;20398;-71
2021/11/30 01:03:14;;;;;;;0.40;0.20;;;2.20;99.90;;;;;;4990925;28;20387;-71
2021/11/30 01:05:41;;;;;;;0.40;0.20;;;2.30;99.90;;;;;;4974395;28;20378;-72
2021/11/30 01:08:07;;;;;;;0.40;0.20;;;2.20;99.90;;;;;;4991748;28;20405;-71
2021/11/30 01:10:33;;;;;;;0.40;0.20;;;2.20;99.90;;;;;;4990588;28;20429;-71
2021/11/30 01:12:59;;;;;;;0.40;0.20;;;2.20;99.90;;;;;;4991371;28;20747;-70
2021/11/30 01:15:25;;;;;;;0.40;0.20;;;2.20;99.90;;;;;;4991000;28;20379;-71
2021/11/30 01:17:52;;;;;;;0.40;0.20;;;2.30;99.90;;;;;;4991560;28;20518;-71
2021/11/30 01:20:18;;;;;;;0.40;0.25;;;2.30;99.90;;;;;;4991186;28;20393;-71
2021/11/30 01:22:44;;;;;;;0.40;0.20;;;2.30;99.90;;;;;;4990864;28;20676;-71
2021/11/30 01:25:11;;;;;;;0.40;0.20;;;2.30;99.90;;;;;;4991098;28;20390;-71
2021/11/30 01:27:38;;;;;;;0.40;0.30;;;2.30;99.90;;;;;;4990622;28;20398;-71
2021/11/30 01:30:06;;;;;;;0.40;0.20;;;2.30;99.90;;;;;;4991119;28;20476;-71
2021/11/30 01:32:31;;;;;;;0.40;0.20;;;2.30;99.90;;;;;;4990743;28;20827;-71
2021/11/30 01:34:57;;;;;;;0.40;0.30;;;2.30;99.90;;;;;;4991021;28;20395;-71
2021/11/30 01:37:23;;;;;;;0.40;0.20;;;2.20;99.90;;;;;;4991327;28;20814;-72
2021/11/30 01:39:49;;;;;;;0.40;0.20;;;2.30;99.90;;;;;;4990683;28;20442;-71
2021/11/30 01:42:15;;;;;;;0.40;0.30;;;2.20;99.90;;;;;;4992326;28;20473;-71
2021/11/30 01:50:03;;;;;;;0.40;0.20;;;2.30;99.90;;;;;;4994107;28;20417;-72
2021/11/30 01:52:30;;;;;;;0.40;0.20;;;2.30;99.90;;;;;;4994470;28;20415;-71
2021/11/30 01:54:55;;;;;;;0.40;0.20;;;2.20;99.90;;;;;;4994505;28;20402;-72
2021/11/30 01:57:23;;;;;;;1.00;0.70;;;2.30;99.90;;;;;;4995310;28;20737;-72
2021/11/30 01:59:50;;;;;;;0.40;0.20;;;2.30;99.90;;;;;;5013598;28;20439;-72
2021/11/30 02:02:17;;;;;;;0.40;0.20;;;2.30;99.90;;;;;;5014203;28;20425;-71
2021/11/30 02:04:44;;;;;;;0.40;0.20;;;2.20;99.90;;;;;;5014122;28;20385;-72
2021/11/30 02:07:10;;;;;;;0.40;0.20;;;2.30;99.90;;;;;;5013654;28;20425;-72
2021/11/30 02:09:38;;;;;;;0.40;0.27;;;2.20;99.90;;;;;;5014047;28;20406;-72
2021/11/30 02:12:05;;;;;;;0.40;0.20;;;2.30;99.90;;;;;;5013377;28;20413;-71
2021/11/30 02:14:32;;;;;;;0.40;0.20;;;2.20;99.90;;;;;;5013874;28;20471;-71
2021/11/30 02:17:00;;;;;;;0.40;0.20;;;2.20;99.90;;;;;;5013863;28;20385;-70
2021/11/30 02:19:27;;;;;;;0.40;0.20;;;2.40;99.90;;;;;;5014199;28;20416;-71
2021/11/30 02:21:54;;;;;;;0.40;0.20;;;2.40;99.90;;;;;;5013817;28;20385;-71
2021/11/30 02:24:20;;;;;;;0.40;0.20;;;2.30;99.90;;;;;;5012743;28;20388;-71
2021/11/30 02:26:45;;;;;;;0.40;0.20;;;2.30;99.90;;;;;;5013443;28;20389;-71
2021/11/30 02:29:12;;;;;;;0.40;0.20;;;2.20;99.90;;;;;;5013026;28;20496;-71
2021/11/30 02:31:47;;;;;;;0.40;0.20;;;2.20;99.90;;;;;;5013629;28;20407;-71
2021/11/30 02:34:15;;;;;;;0.40;0.20;;;2.20;99.90;;;;;;5012747;28;20442;-70
2021/11/30 02:39:10;;;;;;;0.40;0.20;;;2.20;99.90;;;;;;5013399;28;20531;-70
2021/11/30 02:41:36;;;;;;;0.40;0.20;;;2.20;99.90;;;;;;5012602;28;20439;-71
2021/11/30 02:44:03;;;;;;;0.40;0.20;;;2.20;99.90;;;;;;5013347;28;20447;-71
2021/11/30 02:46:29;;;;;;;0.40;0.20;;;2.20;99.90;;;;;;5012505;28;20392;-70
2021/11/30 02:48:55;;;;;;;0.40;0.30;;;2.20;99.90;;;;;;5010068;28;20426;-71
2021/11/30 02:51:21;;;;;;;0.80;0.60;;;2.20;99.90;;;;;;4993275;28;20422;-72
2021/11/30 02:53:47;;;;;;;0.40;0.20;;;2.30;99.90;;;;;;4993713;28;20390;-71
2021/11/30 02:56:13;;;;;;;0.40;0.20;;;2.30;99.90;;;;;;4993605;28;20393;-71
2021/11/30 02:58:38;;;;;;;0.40;0.20;;;2.30;99.90;;;;;;4981624;28;20392;-72
2021/11/30 03:01:06;;;;;;;0.40;0.20;;;2.30;99.90;;;;;;4973798;28;20474;-72
2021/11/30 03:03:32;;;;;;;0.40;0.20;;;2.30;99.90;;;;;;4973579;28;20392;-71
2021/11/30 03:05:58;;;;;;;0.40;0.20;;;2.40;99.90;;;;;;4973983;28;20384;-72
2021/11/30 03:08:23;;;;;;;0.40;0.20;;;2.30;99.90;;;;;;4974013;28;20384;-70
2021/11/30 03:10:51;;;;;;;0.40;0.20;;;2.30;99.90;;;;;;4973170;28;20408;-73
2021/11/30 03:13:17;;;;;;;0.40;0.20;;;2.30;99.90;;;;;;4974247;28;20410;-72
2021/11/30 03:15:43;;;;;;;0.40;0.20;;;2.30;99.90;;;;;;4955697;28;20389;-73
2021/11/30 03:18:09;;;;;;;0.40;0.20;;;2.30;99.90;;;;;;4973902;28;20399;-72
2021/11/30 03:20:35;;;;;;;0.40;0.20;;;2.20;99.90;;;;;;4973787;28;20428;-72
2021/11/30 03:23:01;;;;;;;0.40;0.20;;;2.30;99.90;;;;;;4972892;28;20993;-70
2021/11/30 03:25:27;;;;;;;0.40;0.20;;;2.20;99.90;;;;;;4973700;28;20412;-71
2021/11/30 03:27:52;;;;;;;0.40;0.20;;;2.30;99.90;;;;;;4972788;28;20418;-73
2021/11/30 03:30:22;;;;;;;0.40;0.20;;;2.50;99.90;;;;;;4973594;28;20423;-71
2021/11/30 03:35:34;;;;;;;0.40;0.20;;;2.40;99.90;;;;;;4973481;28;20880;-72
2021/11/30 03:37:59;;;;;;;0.40;0.20;;;2.30;99.90;;;;;;4955497;28;20742;-71
2021/11/30 03:40:25;;;;;;;0.40;0.20;;;2.30;99.90;;;;;;4973699;28;20405;-71
2021/11/30 03:42:51;;;;;;;0.40;0.20;;;2.40;99.90;;;;;;4973384;28;20730;-71
2021/11/30 03:45:17;;;;;;;0.40;0.20;;;2.30;99.90;;;;;;4972579;28;20388;-72
2021/11/30 03:47:43;;;;;;;0.40;0.20;;;2.20;99.90;;;;;;4973596;28;20400;-71
2021/11/30 03:50:10;;;;;;;0.40;0.20;;;2.30;99.90;;;;;;4984626;28;20910;-71
2021/11/30 03:52:37;;;;;;;0.40;0.20;;;2.30;99.90;;;;;;4959003;28;20895;-72
2021/11/30 03:55:04;;;;;;;0.60;0.60;;;2.40;99.90;;;;;;4992137;28;20402;-70
2021/11/30 03:57:29;;;;;;;0.40;0.20;;;2.40;99.90;;;;;;4994437;28;20396;-70
2021/11/30 03:59:55;;;;;;;0.40;0.20;;;2.40;99.90;;;;;;5012052;28;20479;-71
2021/11/30 04:02:21;;;;;;;0.40;0.20;;;2.40;99.90;;;;;;5011575;28;20473;-70
2021/11/30 04:04:47;;;;;;;0.40;0.20;;;2.40;99.90;;;;;;5011233;28;20377;-71
2021/11/30 04:07:14;;;;;;;0.40;0.20;;;2.50;99.90;;;;;;5011242;28;20387;-70
2021/11/30 04:09:40;;;;;;;0.40;0.20;;;2.30;99.90;;;;;;5011979;28;20389;-72
2021/11/30 04:12:08;;;;;;;0.40;0.20;;;2.30;99.90;;;;;;5011862;28;20423;-71
2021/11/30 04:14:34;;;;;;;0.40;0.20;;;2.30;99.90;;;;;;5010887;28;20492;-71
2021/11/30 04:17:00;;;;;;;0.40;0.20;;;2.40;99.90;;;;;;5011777;28;20435;-71
2021/11/30 04:19:25;;;;;;;0.40;0.20;;;2.40;99.90;;;;;;5011227;28;20397;-72
2021/11/30 04:21:51;;;;;;;0.40;0.20;;;2.40;99.90;;;;;;5011720;28;20388;-72
2021/11/30 04:24:17;;;;;;;0.40;0.20;;;2.40;99.90;;;;;;5011461;28;20412;-70
2021/11/30 04:26:43;;;;;;;0.40;0.20;;;2.40;99.90;;;;;;5010907;28;20393;-70
2021/11/30 04:29:09;;;;;;;0.40;0.20;;;2.30;99.90;;;;;;5011594;28;20396;-71
2021/11/30 04:31:35;;;;;;;0.40;0.20;;;2.40;99.90;;;;;;5010884;28;20409;-71
2021/11/30 04:34:03;;;;;;;0.40;0.20;;;2.30;99.90;;;;;;5011616;28;20448;-72
2021/11/30 04:36:29;;;;;;;0.40;0.20;;;2.30;99.90;;;;;;5011432;28;20754;-72
2021/11/30 04:38:56;;;;;;;0.40;0.20;;;2.30;99.90;;;;;;5011626;28;20481;-71
2021/11/30 04:41:22;;;;;;;0.40;0.20;;;2.30;99.90;;;;;;5011323;28;20396;-70
2021/11/30 04:43:48;;;;;;;0.40;0.20;;;2.30;99.90;;;;;;5010994;28;20719;-72
2021/11/30 04:46:20;;;;;;;0.40;0.20;;;2.30;99.90;;;;;;4993790;28;20395;-72
2021/11/30 04:49:05;;;;;;;0.40;0.20;;;2.30;99.90;;;;;;5010445;28;20420;-71
2021/11/30 04:51:32;;;;;;;0.40;0.20;;;2.20;99.90;;;;;;5011174;28;20463;-72
2021/11/30 04:53:58;;;;;;;0.40;0.20;;;2.30;99.90;;;;;;5010677;28;20459;-72
2021/11/30 04:56:24;;;;;;;0.40;0.20;;;2.30;99.90;;;;;;5011264;28;20385;-73
2021/11/30 04:58:50;;;;;;;0.40;0.20;;;2.30;99.90;;;;;;4997622;28;20899;-72
2021/11/30 05:01:17;;;;;;;0.40;0.20;;;2.30;99.90;;;;;;4991596;28;20397;-69
2021/11/30 05:03:43;;;;;;;0.40;0.20;;;2.30;99.90;;;;;;4991796;28;20553;-72
2021/11/30 05:06:12;;;;;;;0.40;0.20;;;2.20;99.90;;;;;;4991045;28;20668;-72
2021/11/30 05:08:38;;;;;;;0.40;0.20;;;2.30;99.90;;;;;;4991695;28;20389;-72
2021/11/30 05:11:04;;;;;;;0.40;0.20;;;2.40;99.90;;;;;;4973529;28;20410;-72
2021/11/30 05:13:30;;;;;;;0.40;0.20;;;2.30;99.90;;;;;;4991672;28;20393;-72
2021/11/30 05:15:56;;;;;;;0.40;0.30;;;2.40;99.90;;;;;;4991382;28;20394;-72
2021/11/30 05:18:22;;;;;;;0.40;0.25;;;2.30;99.90;;;;;;4994104;28;20383;-72
2021/11/30 05:20:48;;;;;;;0.40;0.20;;;2.40;99.90;;;;;;4995517;28;20398;-72
2021/11/30 05:23:22;;;;;;;0.40;0.20;;;2.30;99.90;;;;;;4994558;28;20387;-71
2021/11/30 05:25:48;;;;;;;0.40;0.20;;;2.40;99.90;;;;;;4995323;28;20449;-71
2021/11/30 05:28:13;;;;;;;0.40;0.20;;;2.40;99.90;;;;;;4994784;28;20463;-71
2021/11/30 05:30:39;;;;;;;0.40;0.20;;;2.40;99.90;;;;;;4995003;28;20445;-72
2021/11/30 05:33:08;;;;;;;0.40;0.20;;;2.40;99.90;;;;;;4995205;28;20402;-71
2021/11/30 05:35:34;;;;;;;0.40;0.20;;;2.50;99.90;;;;;;4995080;28;20437;-72
2021/11/30 05:38:00;;;;;;;0.40;0.20;;;2.50;99.90;;;;;;4994788;28;20391;-72
2021/11/30 05:40:26;;;;;;;0.40;0.20;;;2.50;99.90;;;;;;4994512;28;20382;-72
2021/11/30 05:42:53;;;;;;;0.40;0.20;;;2.50;99.90;;;;;;4995205;28;20422;-72
2021/11/30 05:45:18;;;;;;;0.40;0.20;;;2.50;99.90;;;;;;4994466;28;20378;-72
2021/11/30 05:47:44;;;;;;;0.40;0.20;;;2.50;99.90;;;;;;4995017;28;20882;-72
2021/11/30 05:50:10;;;;;;;0.40;0.30;;;2.60;99.90;;;;;;4994869;28;20446;-72
2021/11/30 05:52:36;;;;;;;0.40;0.20;;;2.50;99.90;;;;;;4994263;28;20895;-72
2021/11/30 05:55:02;;;;;;;0.40;0.20;;;2.60;99.90;;;;;;4977434;28;20406;-72
2021/11/30 05:57:27;;;;;;;0.40;0.20;;;2.60;99.90;;;;;;4995629;28;20437;-72
2021/11/30 05:59:56;;;;;;;0.40;0.20;;;2.60;99.90;;;;;;5014453;28;20734;-71
2021/11/30 06:02:23;;;;;;;0.40;0.20;;;2.60;99.90;;;;;;5014271;28;20741;-72
2021/11/30 06:04:48;;;;;;;0.40;0.30;;;2.80;99.90;;;;;;5013566;28;20389;-72
2021/11/30 06:07:14;;;;;;;0.40;0.20;;;2.80;99.90;;;;;;5014076;28;20377;-72
2021/11/30 06:09:40;;;;;;;0.40;0.20;;;2.60;99.90;;;;;;5013614;28;20377;-73
2021/11/30 06:12:06;;;;;;;0.40;0.20;;;2.70;99.90;;;;;;5013750;28;20408;-72
2021/11/30 06:14:32;;;;;;;0.40;0.20;;;2.70;99.90;;;;;;5014350;28;20389;-70
2021/11/30 06:16:58;;;;;;;0.40;0.20;;;2.70;99.90;;;;;;5013151;28;20428;-72
2021/11/30 06:19:23;;;;;;;0.40;0.20;;;2.80;99.90;;;;;;5014025;28;20769;-74
2021/11/30 06:21:49;;;;;;;0.50;0.40;;;2.80;99.90;;;;;;5013329;28;20432;-73
2021/11/30 06:24:16;;;;;;;0.40;0.30;;;2.80;99.90;;;;;;4996295;28;20393;-73
2021/11/30 06:26:43;;;;;;;0.40;0.20;;;2.80;99.90;;;;;;5013499;28;20408;-72
2021/11/30 06:29:09;;;;;;;0.40;0.20;;;2.90;99.90;;;;;;5013494;28;20450;-72
2021/11/30 06:31:35;;;;;;;0.40;0.20;;;2.80;99.90;;;;;;5013809;28;20413;-73
2021/11/30 06:34:01;;;;;;;0.40;0.20;;;2.90;99.90;;;;;;4995272;28;20397;-72
2021/11/30 06:36:27;;;;;;;0.40;0.20;;;2.90;99.90;;;;;;5009625;28;20423;-71
2021/11/30 06:38:55;;;;;;;0.40;0.20;;;2.80;99.90;;;;;;4995112;28;20383;-73
2021/11/30 06:41:20;;;;;;;0.40;0.20;;;2.90;99.90;;;;;;4993681;28;20405;-73
2021/11/30 06:43:46;;;;;;;0.40;0.20;;;3.00;99.90;;;;;;4996479;28;20394;-72
2021/11/30 06:46:12;;;;;;;0.40;0.20;;;2.90;99.90;;;;;;4999770;28;20394;-73
2021/11/30 06:48:37;;;;;;;0.40;0.20;;;3.00;99.90;;;;;;4993523;28;20379;-73
2021/11/30 06:51:03;;;;;;;0.50;0.50;;;3.00;99.90;;;;;;4993069;28;20425;-71
2021/11/30 06:53:32;;;;;;;0.40;0.20;;;2.90;99.90;;;;;;5005869;28;20400;-70
2021/11/30 06:55:58;;;;;;;0.40;0.30;;;2.90;99.90;;;;;;4996915;28;20468;-72
2021/11/30 06:58:24;;;;;;;0.50;0.50;;;2.90;99.90;;;;;;4991346;28;20484;-71
2021/11/30 07:00:51;;;;;;;0.40;0.30;;;2.90;99.90;;;;;;5006354;28;20977;-71
2021/11/30 07:03:18;;;;;;;0.40;0.20;;;2.80;99.90;;;;;;5003375;28;20384;-72
2021/11/30 07:05:45;;;;;;;0.40;0.20;;;3.00;99.90;;;;;;4981156;28;20736;-72
2021/11/30 07:08:23;;;;;;;0.40;0.20;;;2.90;99.90;;;;;;5008733;28;20385;-72
2021/11/30 07:11:01;;;;;;;0.40;0.20;;;2.90;99.90;;;;;;5000186;28;20392;-70
2021/11/30 07:13:32;;;;;;;0.40;0.28;;;2.90;99.90;;;;;;5006692;28;20440;-70
2021/11/30 07:16:03;;;;;;;0.40;0.20;;;3.00;99.90;;;;;;5000638;28;20381;-70
2021/11/30 07:18:31;;;;;;;0.40;0.20;;;2.90;99.90;;;;;;4994544;28;20468;-70
2021/11/30 07:20:58;;;;;;;0.40;0.20;;;2.90;99.90;;;;;;5012491;28;20483;-71
2021/11/30 07:23:24;;;;;;;0.40;0.20;;;2.80;99.90;;;;;;5011961;28;20416;-72
2021/11/30 07:25:52;;;;;;;0.40;0.20;;;2.80;99.90;;;;;;5012872;28;20850;-72
2021/11/30 07:28:22;;;;;;;0.40;0.20;;;2.90;99.90;;;;;;5012612;28;20734;-71
2021/11/30 07:30:49;;;;;;;0.40;0.20;;;2.90;99.90;;;;;;5012556;28;20408;-71
2021/11/30 07:33:15;;;;;;;0.40;0.20;;;2.90;99.90;;;;;;5012482;28;20396;-72
2021/11/30 07:35:40;;;;;;;0.40;0.20;;;2.80;99.90;;;;;;4994384;28;20439;-72
2021/11/30 07:38:07;;;;;;;0.40;0.30;;;2.80;99.90;;;;;;5012383;28;20416;-72
2021/11/30 07:40:33;;;;;;;0.40;0.20;;;2.80;99.90;;;;;;5011397;28;20461;-71
2021/11/30 07:42:58;;;;;;;0.40;0.20;;;2.80;99.90;;;;;;5012393;28;20381;-72
2021/11/30 07:45:24;;;;;;;0.40;0.20;;;2.80;99.90;;;;;;5012329;28;20392;-72
2021/11/30 07:47:50;;;;;;;0.40;0.20;;;2.90;99.90;;;;;;5011404;28;20472;-71
2021/11/30 07:50:16;;;;;;;0.50;0.50;;;2.90;99.90;;;;;;5012268;28;20427;-72
2021/11/30 07:52:43;;;;;;;0.40;0.20;;;2.90;99.90;;;;;;5011307;28;20562;-71
2021/11/30 07:55:12;;;;;;;0.40;0.20;;;3.00;99.90;;;;;;5012186;28;20396;-71
2021/11/30 07:57:38;;;;;;;0.40;0.20;;;3.20;99.90;;;;;;5012210;28;20683;-72
2021/11/30 08:00:09;;;;;;;0.40;0.30;;;3.20;99.90;;;;;;5011316;28;21000;-71
2021/11/30 08:02:35;;;;;;;0.40;0.20;;;3.20;99.90;;;;;;5012131;28;20403;-73
2021/11/30 08:05:00;;;;;;;0.40;0.20;;;3.30;99.90;;;;;;5011266;28;20396;-72
2021/11/30 08:07:26;;;;;;;0.40;0.20;;;3.30;99.90;;;;;;5011982;28;20877;-71
2021/11/30 08:09:52;;;;;;;0.40;0.20;;;3.30;99.90;;;;;;5011091;28;20413;-71
2021/11/30 08:12:18;;;;;;;0.40;0.20;;;3.30;99.90;;;;;;5011877;28;20504;-71
2021/11/30 08:14:44;;;;;;;0.40;0.20;;;3.30;99.90;;;;;;5011519;28;20381;-71
2021/11/30 08:17:13;;;;;;;0.40;0.20;;;3.30;99.90;;;;;;5011184;28;20385;-72
2021/11/30 08:19:41;;;;;;;0.40;0.20;;;3.40;99.90;;;;;;5011392;28;20483;-71
2021/11/30 08:22:07;;;;;;;0.40;0.20;;;3.40;99.90;;;;;;5010960;28;20822;-73
2021/11/30 08:24:34;;;;;;;0.40;0.20;;;3.40;99.90;;;;;;5011669;28;20463;-72
2021/11/30 08:27:00;;;;;;;0.40;0.20;;;3.30;99.90;;;;;;5011731;28;20815;-71
2021/11/30 08:29:26;;;;;;;0.40;0.20;;;3.40;99.90;;;;;;5011094;28;20420;-72
2021/11/30 08:31:52;;;;;;;0.40;0.20;;;3.30;99.90;;;;;;4994001;28;20990;-71
2021/11/30 08:34:18;;;;;;;0.40;0.20;;;3.40;99.90;;;;;;5011254;28;20397;-72
2021/11/30 08:36:44;;;;;;;0.40;0.20;;;3.40;99.90;;;;;;5011350;28;20435;-71
2021/11/30 08:39:10;;;;;;;0.40;0.20;;;3.40;99.90;;;;;;4993807;28;20400;-72
2021/11/30 08:41:36;;;;;;;0.40;0.20;;;3.40;99.90;;;;;;5011004;28;20381;-72
2021/11/30 08:44:01;;;;;;;0.40;0.20;;;3.40;99.90;;;;;;5011430;28;20939;-73
2021/11/30 08:46:27;;;;;;;0.40;0.20;;;3.40;99.90;;;;;;5010861;28;20417;-73
2021/11/30 08:48:53;;;;;;;0.40;0.20;;;3.50;99.90;;;;;;5008441;28;20385;-73
2021/11/30 08:51:19;;;;;;;0.40;0.20;;;3.50;99.90;;;;;;4991148;28;20498;-72
2021/11/30 08:53:45;;;;;;;0.40;0.20;;;3.50;99.90;;;;;;4991387;28;20868;-73
2021/11/30 08:56:12;;;;;;;0.40;0.20;;;3.40;99.90;;;;;;4974480;28;20489;-72
2021/11/30 08:58:38;;;;;;;0.40;0.20;;;3.50;99.90;;;;;;4980175;28;20410;-73
2021/11/30 09:01:04;;;;;;;0.40;0.30;;;3.50;99.90;;;;;;4972568;28;20388;-72
2021/11/30 09:03:30;;;;;;;0.40;0.20;;;3.60;99.90;;;;;;4971388;28;20947;-73
2021/11/30 09:05:56;;;;;;;0.40;0.20;;;3.60;99.90;;;;;;4972294;28;20479;-72
2021/11/30 09:08:23;;;;;;;0.40;0.30;;;3.60;99.90;;;;;;4972184;28;20388;-72
2021/11/30 09:10:48;;;;;;;0.40;0.20;;;3.60;99.90;;;;;;4971580;28;20809;-73
2021/11/30 09:13:15;;;;;;;0.40;0.28;;;3.60;99.90;;;;;;4972295;28;20423;-71
2021/11/30 09:15:40;;;;;;;0.40;0.20;;;3.60;99.90;;;;;;4971180;28;20424;-72
2021/11/30 09:18:07;;;;;;;0.40;0.20;;;3.60;99.90;;;;;;4954754;28;20443;-72
2021/11/30 09:20:33;;;;;;;0.40;0.20;;;3.60;99.90;;;;;;4971674;28;20797;-72
2021/11/30 09:22:59;;;;;;;0.40;0.20;;;3.70;99.90;;;;;;4971575;28;20443;-72
2021/11/30 09:25:26;;;;;;;0.85;0.85;;;3.70;99.90;;;;;;4972017;28;20392;-71
2021/11/30 09:27:53;;;;;;;0.40;0.20;;;3.80;99.90;;;;;;4954151;28;21027;-71
2021/11/30 09:30:24;;;;;;;0.40;0.30;;;3.90;99.90;;;;;;4971725;28;20436;-73
2021/11/30 09:32:50;;;;;;;0.40;0.20;;;3.70;99.90;;;;;;4971449;28;20426;-71
2021/11/30 09:35:20;;;;;;;0.40;0.20;;;3.80;99.90;;;;;;4954451;28;20415;-72
2021/11/30 09:37:48;;;;;;;0.40;0.20;;;3.70;99.90;;;;;;4971986;28;20392;-71
2021/11/30 09:40:18;;;;;;;0.40;0.20;;;3.80;99.90;;;;;;4971577;28;20904;-71
2021/11/30 09:42:44;;;;;;;0.40;0.20;;;3.80;99.90;;;;;;4954564;28;20787;-71
2021/11/30 09:45:11;;;;;;;0.40;0.20;;;3.80;99.90;;;;;;4971213;28;20470;-71
2021/11/30 09:47:39;;;;;;;0.40;0.20;;;3.80;99.90;;;;;;4971976;28;20471;-70
2021/11/30 09:50:07;;;;;;;0.40;0.30;;;3.80;99.90;;;;;;4982894;28;20426;-71
2021/11/30 09:52:32;;;;;;;0.40;0.20;;;3.70;99.90;;;;;;4991276;28;20486;-72
2021/11/30 09:54:58;;;;;;;0.40;0.20;;;3.70;99.90;;;;;;4990982;28;20399;-71
2021/11/30 09:57:24;;;;;;;0.40;0.20;;;3.80;99.90;;;;;;4991371;28;20446;-71
2021/11/30 09:59:50;;;;;;;0.40;0.20;;;3.70;99.90;;;;;;5011028;28;20457;-72
2021/11/30 10:02:17;;;;;;;0.40;0.20;;;3.70;99.90;;;;;;5010260;28;20427;-71
2021/11/30 10:04:43;;;;;;;0.40;0.30;;;3.70;99.90;;;;;;5013471;28;20478;-72
2021/11/30 10:07:09;;;;;;;0.40;0.20;;;3.70;99.90;;;;;;5013447;28;20381;-72
2021/11/30 10:09:35;;;;;;;0.40;0.20;;;3.90;99.90;;;;;;5014180;28;20800;-70
2021/11/30 10:12:06;;;;;;;0.40;0.20;;;3.70;99.90;;;;;;4996624;28;20757;-70
2021/11/30 10:14:37;;;;;;;0.40;0.20;;;3.70;99.90;;;;;;5013481;28;20708;-72
2021/11/30 10:17:22;;;;;;;0.40;0.20;;;3.80;99.90;;;;;;5014080;28;20462;-70
2021/11/30 10:20:12;;;;;;;0.40;0.20;;;3.70;99.90;;;;;;4996095;28;20457;-72
2021/11/30 10:22:50;;;;;;;0.40;0.20;;;3.80;99.90;;;;;;4986282;28;20878;-71
2021/11/30 10:25:22;;;;;;;0.40;0.20;;;3.80;99.90;;;;;;5013902;28;20908;-71
2021/11/30 10:27:50;;;;;;;0.40;0.20;;;3.80;99.90;;;;;;5013890;28;20393;-72
2021/11/30 10:30:23;;;;;;;0.40;0.20;;;3.90;99.90;;;;;;4996373;28;20426;-71
2021/11/30 10:32:51;;;;;;;0.40;0.20;;;3.80;99.90;;;;;;5013741;28;20431;-71
2021/11/30 10:35:19;;;;;;;0.40;0.20;;;3.80;99.90;;;;;;5013403;28;20940;-71
2021/11/30 10:37:46;;;;;;;0.40;0.20;;;3.80;99.90;;;;;;5013116;28;20391;-71
2021/11/30 10:40:17;;;;;;;0.40;0.20;;;3.80;99.90;;;;;;5013516;28;20396;-71
2021/11/30 10:42:54;;;;;;;0.40;0.20;;;3.80;99.90;;;;;;5013055;28;20392;-71
2021/11/30 10:45:40;;;;;;;0.40;0.20;;;3.80;99.90;;;;;;4995701;28;20396;-70
2021/11/30 10:48:09;;;;;;;0.40;0.20;;;3.80;99.90;;;;;;5013691;28;20395;-69
2021/11/30 10:50:38;;;;;;;0.40;0.20;;;3.90;99.90;;;;;;5012736;28;20431;-71
2021/11/30 10:53:19;;;;;;;0.40;0.20;;;3.90;99.90;;;;;;5013208;28;20444;-70
2021/11/30 10:55:53;;;;;;;0.40;0.38;;;3.90;99.90;;;;;;5012760;28;20521;-70
2021/11/30 10:58:22;;;;;;;0.40;0.20;;;3.90;99.90;;;;;;5004696;28;20396;-70
2021/11/30 11:00:50;;;;;;;0.40;0.20;;;3.90;99.90;;;;;;4992603;28;20390;-71
2021/11/30 11:03:20;;;;;;;0.40;0.20;;;3.90;99.90;;;;;;4993307;28;20387;-70
2021/11/30 11:06:28;;;;;;;0.40;0.20;;;3.90;99.90;;;;;;4992873;28;20433;-71
2021/11/30 11:08:41;;;;;;;0.40;0.30;;;3.90;99.90;;;;;;4993129;28;20860;-70
2021/11/30 11:11:07;;;;;;;0.40;0.20;;;3.80;99.90;;;;;;4992716;28;20685;-70
2021/11/30 11:13:38;;;;;;;0.40;0.20;;;3.80;99.90;;;;;;4993071;28;20406;-71
2021/11/30 11:16:06;;;;;;;0.40;0.20;;;3.90;99.90;;;;;;4992535;28;20390;-72
2021/11/30 11:18:34;;;;;;;0.40;0.30;;;3.90;99.90;;;;;;4975862;28;20844;-71
2021/11/30 11:21:18;;;;;;;0.40;0.20;;;3.80;99.90;;;;;;4992776;28;20398;-71
2021/11/30 11:24:05;;;;;;;0.40;0.20;;;3.90;99.90;;;;;;4993307;28;20446;-70
2021/11/30 11:26:51;;;;;;;0.40;0.20;;;3.80;99.90;;;;;;4993322;28;20812;-73
2021/11/30 11:29:26;;;;;;;0.40;0.20;;;4.00;99.90;;;;;;4991631;28;20780;-73
2021/11/30 11:32:01;;;;;;;0.40;0.30;;;3.90;99.90;;;;;;4992721;28;20444;-71
2021/11/30 11:34:30;;;;;;;0.40;0.20;;;3.90;99.90;;;;;;4993125;28;20441;-72
2021/11/30 11:36:58;;;;;;;0.40;0.20;;;3.90;99.90;;;;;;4993258;28;20386;-73
2021/11/30 11:39:25;;;;;;;0.40;0.20;;;3.90;99.90;;;;;;4992380;28;20735;-73
2021/11/30 11:41:57;;;;;;;0.40;0.20;;;3.90;99.90;;;;;;4975315;28;20430;-72
2021/11/30 11:44:23;;;;;;;0.40;0.20;;;3.90;99.90;;;;;;4992228;28;20479;-72
2021/11/30 11:46:52;;;;;;;0.40;0.20;;;3.90;99.90;;;;;;4992729;28;20425;-72
2021/11/30 11:49:23;;;;;;;0.40;0.20;;;3.80;99.90;;;;;;4991769;28;20417;-69
2021/11/30 11:51:51;;;;;;;0.40;0.20;;;3.80;99.90;;;;;;4992289;28;20922;-73
2021/11/30 11:54:29;;;;;;;0.40;0.20;;;3.80;99.90;;;;;;4974678;28;20402;-72
2021/11/30 11:57:04;;;;;;;0.40;0.30;;;3.80;99.90;;;;;;4992650;28;20973;-73
2021/11/30 11:59:34;;;;;;;0.40;0.20;;;3.80;99.90;;;;;;5009606;28;20440;-73
2021/11/30 12:02:26;;;;;;;0.40;0.30;;;3.80;99.90;;;;;;5012208;28;20757;-72
2021/11/30 12:05:06;;;;;;;0.40;0.20;;;3.80;99.90;;;;;;5012007;28;20388;-73
2021/11/30 12:07:59;;;;;;;0.40;0.20;;;3.90;99.90;;;;;;4993861;28;20847;-74
2021/11/30 12:10:26;;;;;;;0.40;0.20;;;3.90;99.90;;;;;;5012046;28;20436;-73
2021/11/30 12:12:58;;;;;;;0.40;0.20;;;3.80;99.90;;;;;;5011713;28;20420;-73
2021/11/30 12:15:25;;;;;;;2.70;0.50;;;3.80;99.90;;;;;;5011900;28;20467;-72
2021/11/30 12:17:53;;;;;;;0.40;0.20;;;3.80;99.90;;;;;;5011181;28;20846;-72
2021/11/30 12:20:19;;;;;;;0.40;0.22;;;3.90;99.90;;;;;;5012134;28;20407;-71
2021/11/30 12:22:45;;;;;;;0.40;0.20;;;3.80;99.90;;;;;;5010838;28;20388;-71
2021/11/30 12:25:26;;;;;;;0.43;0.40;;;3.80;99.90;;;;;;5011868;28;20476;-71
2021/11/30 12:27:53;;;;;;;0.40;0.20;;;3.80;99.90;;;;;;5010815;28;20742;-70
2021/11/30 12:30:42;;;;;;;0.50;0.45;;;3.80;99.90;;;;;;5011668;28;20869;-71
2021/11/30 12:33:15;;;;;;;0.40;0.20;;;3.80;99.90;;;;;;5011542;28;20412;-73
2021/11/30 12:35:44;;;;;;;0.40;0.20;;;3.70;99.90;;;;;;5011381;28;20404;-70
2021/11/30 12:38:20;;;;;;;0.40;0.30;;;3.70;99.90;;;;;;5011395;28;20882;-68
2021/11/30 12:40:49;;;;;;;0.40;0.20;;;3.70;99.90;;;;;;5011056;28;20496;-71
2021/11/30 12:43:19;;;;;;;0.40;0.30;;;3.70;99.90;;;;;;5011694;28;20628;-72
2021/11/30 12:45:50;;;;;;;0.40;0.20;;;3.70;99.90;;;;;;5011513;28;20419;-70
2021/11/30 12:48:39;;;;;;;0.40;0.20;;;3.80;99.90;;;;;;5011621;28;20384;-72
2021/11/30 12:51:28;;;;;;;0.40;0.20;;;3.70;99.90;;;;;;5010782;28;20404;-73
2021/11/30 12:53:57;;;;;;;0.40;0.20;;;3.70;99.90;;;;;;5011293;28;20444;-72
2021/11/30 12:56:46;;;;;;;0.40;0.30;;;3.70;99.90;;;;;;5011373;28;20428;-70
2021/11/30 12:59:33;;;;;;;0.40;0.20;;;3.70;99.90;;;;;;4995118;28;20405;-71
2021/11/30 13:02:24;;;;;;;0.40;0.20;;;3.70;99.90;;;;;;4941818;28;20871;-71
2021/11/30 13:04:53;;;;;;;0.40;0.20;;;3.70;99.90;;;;;;4991165;28;20468;-72
2021/11/30 13:25:53;;;;;;;0.40;0.20;;;3.60;99.90;;;;;;5237674;23;20533;-69
2021/11/30 13:28:29;;;;;;;0.40;0.20;;;3.60;99.90;;;;;;4995899;28;20576;-67
2021/11/30 13:30:59;;;;;;;0.40;0.20;;;3.70;99.90;;;;;;4988156;28;20402;-69
2021/11/30 13:33:27;;;;;;;0.40;0.20;;;3.60;99.90;;;;;;4991274;28;20406;-67